Decoded Metar for LFMU (BEZIERS in FRANCE) (IATA:BZR) | Meteo·Mobile Aviation Weather
aviador You're here:

LFMU Decoded Metar

BEZIERS in FRANCE
Report Time2019-07-19 19:00:00
UTC Time2019-07-19 19:35:26
Flight Rules vfr VFR
Wind190° at 04 kt
W.Decomp.*RWY 27: 0.6 kt HW 4 kt LCW
Visibility9999 m
Phenomena:N/A
Clouds:N/A
Expected CloudBase > 2,400 ft AGL from Temp-Dew spread
CeilingNone
Temp24°C (ISA +9)
Dew Point18°C (69% RH)
QNH1014 hPa
Density Alt1,352 ft
Elevation56 ft
Report Wrong Elevation
Raw Report
LFMU 191900Z AUTO 19004KT 160V230 CAVOK 24/18 Q1014 NOSIG=

Extra information for LFMU:More info

Metar Taf Metar & Taf Last 4 Metars F.Rules Stats Wind Profile Meteogram Temp Stats Airport Information Weather charts Add Link Nearby VenuesMetar ALERT Operation Metar Decoded Social comments